sensor_id;sensor_type;location;lat;lon;timestamp;P1;durP1;ratioP1;P2;durP2;ratioP2
52268;SDS011;38224;50.950;4.100;2023-07-09T00:01:04;7.32;;;4.20;;
52268;SDS011;38224;50.950;4.100;2023-07-09T00:03:30;7.75;;;4.50;;
52268;SDS011;38224;50.950;4.100;2023-07-09T00:05:55;11.98;;;4.72;;
52268;SDS011;38224;50.950;4.100;2023-07-09T00:08:24;8.10;;;4.15;;
52268;SDS011;38224;50.950;4.100;2023-07-09T00:10:49;8.48;;;4.55;;
52268;SDS011;38224;50.950;4.100;2023-07-09T00:13:15;13.53;;;4.80;;
52268;SDS011;38224;50.950;4.100;2023-07-09T00:15:40;8.13;;;4.20;;
52268;SDS011;38224;50.950;4.100;2023-07-09T00:18:07;8.97;;;4.80;;
52268;SDS011;38224;50.950;4.100;2023-07-09T00:20:32;10.95;;;4.22;;
52268;SDS011;38224;50.950;4.100;2023-07-09T00:22:57;6.60;;;4.10;;
52268;SDS011;38224;50.950;4.100;2023-07-09T00:25:23;9.73;;;4.43;;
52268;SDS011;38224;50.950;4.100;2023-07-09T00:27:49;9.88;;;5.10;;
52268;SDS011;38224;50.950;4.100;2023-07-09T00:30:22;7.30;;;4.05;;
52268;SDS011;38224;50.950;4.100;2023-07-09T00:32:48;8.52;;;4.22;;
52268;SDS011;38224;50.950;4.100;2023-07-09T00:35:13;11.65;;;4.72;;
52268;SDS011;38224;50.950;4.100;2023-07-09T00:37:42;8.07;;;4.45;;
52268;SDS011;38224;50.950;4.100;2023-07-09T00:40:19;6.75;;;4.25;;
52268;SDS011;38224;50.950;4.100;2023-07-09T00:42:46;11.40;;;4.43;;
52268;SDS011;38224;50.950;4.100;2023-07-09T00:45:21;8.52;;;4.47;;
52268;SDS011;38224;50.950;4.100;2023-07-09T00:48:04;11.27;;;4.40;;
52268;SDS011;38224;50.950;4.100;2023-07-09T00:52:58;6.93;;;4.60;;
52268;SDS011;38224;50.950;4.100;2023-07-09T00:55:25;8.40;;;4.50;;
52268;SDS011;38224;50.950;4.100;2023-07-09T00:57:54;8.35;;;4.95;;
52268;SDS011;38224;50.950;4.100;2023-07-09T01:00:23;7.57;;;4.40;;
52268;SDS011;38224;50.950;4.100;2023-07-09T01:02:49;9.30;;;5.03;;
52268;SDS011;38224;50.950;4.100;2023-07-09T01:05:15;7.95;;;4.85;;
52268;SDS011;38224;50.950;4.100;2023-07-09T01:07:42;7.78;;;4.85;;
52268;SDS011;38224;50.950;4.100;2023-07-09T01:10:11;11.70;;;5.18;;
52268;SDS011;38224;50.950;4.100;2023-07-09T01:12:36;7.82;;;4.50;;
52268;SDS011;38224;50.950;4.100;2023-07-09T01:15:02;10.05;;;4.97;;
52268;SDS011;38224;50.950;4.100;2023-07-09T01:17:27;13.68;;;4.60;;
52268;SDS011;38224;50.950;4.100;2023-07-09T01:19:53;9.45;;;5.40;;
52268;SDS011;38224;50.950;4.100;2023-07-09T01:22:19;11.93;;;4.68;;
52268;SDS011;38224;50.950;4.100;2023-07-09T01:27:13;7.68;;;5.05;;
52268;SDS011;38224;50.950;4.100;2023-07-09T01:29:38;8.02;;;5.07;;
52268;SDS011;38224;50.950;4.100;2023-07-09T01:32:04;10.85;;;4.90;;
52268;SDS011;38224;50.950;4.100;2023-07-09T01:34:31;9.13;;;4.95;;
52268;SDS011;38224;50.950;4.100;2023-07-09T01:36:57;7.97;;;4.47;;
52268;SDS011;38224;50.950;4.100;2023-07-09T01:39:22;9.40;;;5.10;;
52268;SDS011;38224;50.950;4.100;2023-07-09T01:41:48;9.20;;;4.38;;
52268;SDS011;38224;50.950;4.100;2023-07-09T01:44:15;12.18;;;4.43;;
52268;SDS011;38224;50.950;4.100;2023-07-09T01:46:40;11.60;;;4.90;;
52268;SDS011;38224;50.950;4.100;2023-07-09T01:49:07;12.18;;;5.20;;
52268;SDS011;38224;50.950;4.100;2023-07-09T01:51:34;12.07;;;5.68;;
52268;SDS011;38224;50.950;4.100;2023-07-09T01:54:01;10.35;;;4.75;;
52268;SDS011;38224;50.950;4.100;2023-07-09T01:56:26;6.43;;;4.38;;
52268;SDS011;38224;50.950;4.100;2023-07-09T01:58:51;9.27;;;4.93;;
52268;SDS011;38224;50.950;4.100;2023-07-09T02:01:17;9.82;;;4.63;;
52268;SDS011;38224;50.950;4.100;2023-07-09T02:03:44;7.78;;;4.43;;
52268;SDS011;38224;50.950;4.100;2023-07-09T02:06:10;9.27;;;5.10;;
52268;SDS011;38224;50.950;4.100;2023-07-09T02:08:36;10.02;;;5.20;;
52268;SDS011;38224;50.950;4.100;2023-07-09T02:11:01;8.73;;;4.93;;
52268;SDS011;38224;50.950;4.100;2023-07-09T02:13:26;8.75;;;4.25;;
52268;SDS011;38224;50.950;4.100;2023-07-09T02:15:52;7.07;;;4.70;;
52268;SDS011;38224;50.950;4.100;2023-07-09T02:18:17;9.57;;;4.90;;
52268;SDS011;38224;50.950;4.100;2023-07-09T02:20:42;7.13;;;4.87;;
52268;SDS011;38224;50.950;4.100;2023-07-09T02:23:08;8.20;;;4.77;;
52268;SDS011;38224;50.950;4.100;2023-07-09T02:25:33;9.32;;;5.45;;
52268;SDS011;38224;50.950;4.100;2023-07-09T02:27:58;12.05;;;5.13;;
52268;SDS011;38224;50.950;4.100;2023-07-09T02:30:24;9.88;;;4.88;;
52268;SDS011;38224;50.950;4.100;2023-07-09T02:32:49;13.57;;;5.27;;
52268;SDS011;38224;50.950;4.100;2023-07-09T02:35:14;10.93;;;5.60;;
52268;SDS011;38224;50.950;4.100;2023-07-09T02:37:39;11.27;;;5.72;;
52268;SDS011;38224;50.950;4.100;2023-07-09T02:40:07;8.02;;;5.15;;
52268;SDS011;38224;50.950;4.100;2023-07-09T02:42:32;10.40;;;5.65;;
52268;SDS011;38224;50.950;4.100;2023-07-09T02:44:58;10.97;;;6.00;;
52268;SDS011;38224;50.950;4.100;2023-07-09T02:47:23;9.63;;;5.87;;
52268;SDS011;38224;50.950;4.100;2023-07-09T02:49:48;14.37;;;6.33;;
52268;SDS011;38224;50.950;4.100;2023-07-09T02:52:13;12.90;;;6.43;;
52268;SDS011;38224;50.950;4.100;2023-07-09T02:54:39;11.25;;;6.00;;
52268;SDS011;38224;50.950;4.100;2023-07-09T02:57:04;10.57;;;6.68;;
52268;SDS011;38224;50.950;4.100;2023-07-09T02:59:30;14.48;;;7.38;;
52268;SDS011;38224;50.950;4.100;2023-07-09T03:01:55;14.90;;;7.13;;
52268;SDS011;38224;50.950;4.100;2023-07-09T03:04:21;8.43;;;5.32;;
52268;SDS011;38224;50.950;4.100;2023-07-09T03:06:46;12.07;;;5.73;;
52268;SDS011;38224;50.950;4.100;2023-07-09T03:09:11;15.57;;;6.53;;
52268;SDS011;38224;50.950;4.100;2023-07-09T03:11:37;14.07;;;6.10;;
52268;SDS011;38224;50.950;4.100;2023-07-09T03:14:02;13.18;;;6.45;;
52268;SDS011;38224;50.950;4.100;2023-07-09T03:16:29;11.50;;;6.68;;
52268;SDS011;38224;50.950;4.100;2023-07-09T03:18:55;9.25;;;6.57;;
52268;SDS011;38224;50.950;4.100;2023-07-09T03:21:21;15.80;;;6.07;;
52268;SDS011;38224;50.950;4.100;2023-07-09T03:23:46;11.43;;;6.60;;
52268;SDS011;38224;50.950;4.100;2023-07-09T03:26:11;11.65;;;6.00;;
52268;SDS011;38224;50.950;4.100;2023-07-09T03:28:37;13.48;;;7.00;;
52268;SDS011;38224;50.950;4.100;2023-07-09T03:31:02;12.37;;;7.37;;
52268;SDS011;38224;50.950;4.100;2023-07-09T03:33:27;20.10;;;8.90;;
52268;SDS011;38224;50.950;4.100;2023-07-09T03:35:53;13.80;;;8.87;;
52268;SDS011;38224;50.950;4.100;2023-07-09T03:38:18;14.57;;;7.80;;
52268;SDS011;38224;50.950;4.100;2023-07-09T03:40:44;15.57;;;8.83;;
52268;SDS011;38224;50.950;4.100;2023-07-09T03:43:09;12.07;;;8.05;;
52268;SDS011;38224;50.950;4.100;2023-07-09T03:45:35;13.13;;;8.88;;
52268;SDS011;38224;50.950;4.100;2023-07-09T03:48:01;13.18;;;8.45;;
52268;SDS011;38224;50.950;4.100;2023-07-09T03:50:27;11.68;;;8.20;;
52268;SDS011;38224;50.950;4.100;2023-07-09T03:52:52;16.63;;;9.43;;
52268;SDS011;38224;50.950;4.100;2023-07-09T03:55:18;13.23;;;8.95;;
52268;SDS011;38224;50.950;4.100;2023-07-09T03:57:43;15.55;;;8.45;;
52268;SDS011;38224;50.950;4.100;2023-07-09T04:00:08;12.27;;;7.90;;
52268;SDS011;38224;50.950;4.100;2023-07-09T04:02:37;11.65;;;7.10;;
52268;SDS011;38224;50.950;4.100;2023-07-09T04:05:03;11.65;;;6.85;;
52268;SDS011;38224;50.950;4.100;2023-07-09T04:07:29;16.02;;;7.30;;
52268;SDS011;38224;50.950;4.100;2023-07-09T04:09:54;14.40;;;7.10;;
52268;SDS011;38224;50.950;4.100;2023-07-09T04:12:19;15.85;;;8.25;;
52268;SDS011;38224;50.950;4.100;2023-07-09T04:14:45;13.93;;;8.30;;
52268;SDS011;38224;50.950;4.100;2023-07-09T04:17:10;13.60;;;8.17;;
52268;SDS011;38224;50.950;4.100;2023-07-09T04:19:35;10.18;;;6.90;;
52268;SDS011;38224;50.950;4.100;2023-07-09T04:22:01;11.20;;;6.90;;
52268;SDS011;38224;50.950;4.100;2023-07-09T04:24:26;18.17;;;8.80;;
52268;SDS011;38224;50.950;4.100;2023-07-09T04:26:52;14.90;;;8.25;;
52268;SDS011;38224;50.950;4.100;2023-07-09T04:29:21;16.98;;;8.60;;
52268;SDS011;38224;50.950;4.100;2023-07-09T04:31:46;23.17;;;16.05;;
52268;SDS011;38224;50.950;4.100;2023-07-09T04:34:12;30.07;;;18.70;;
52268;SDS011;38224;50.950;4.100;2023-07-09T04:36:37;36.20;;;21.23;;
52268;SDS011;38224;50.950;4.100;2023-07-09T04:39:02;32.53;;;21.20;;
52268;SDS011;38224;50.950;4.100;2023-07-09T04:41:28;38.30;;;20.80;;
52268;SDS011;38224;50.950;4.100;2023-07-09T04:43:53;39.97;;;25.07;;
52268;SDS011;38224;50.950;4.100;2023-07-09T04:46:19;44.40;;;29.83;;
52268;SDS011;38224;50.950;4.100;2023-07-09T04:48:44;47.53;;;30.57;;
52268;SDS011;38224;50.950;4.100;2023-07-09T04:51:09;48.33;;;33.95;;
52268;SDS011;38224;50.950;4.100;2023-07-09T04:53:35;49.63;;;34.47;;
52268;SDS011;38224;50.950;4.100;2023-07-09T04:56:00;49.10;;;35.13;;
52268;SDS011;38224;50.950;4.100;2023-07-09T04:58:27;52.97;;;37.42;;
52268;SDS011;38224;50.950;4.100;2023-07-09T05:00:52;54.67;;;38.80;;
52268;SDS011;38224;50.950;4.100;2023-07-09T05:03:21;61.60;;;41.50;;
52268;SDS011;38224;50.950;4.100;2023-07-09T05:05:46;62.37;;;41.83;;
52268;SDS011;38224;50.950;4.100;2023-07-09T05:08:12;57.53;;;40.35;;
52268;SDS011;38224;50.950;4.100;2023-07-09T05:10:44;52.22;;;38.28;;
52268;SDS011;38224;50.950;4.100;2023-07-09T05:13:10;53.63;;;36.50;;
52268;SDS011;38224;50.950;4.100;2023-07-09T05:15:39;52.92;;;35.88;;
52268;SDS011;38224;50.950;4.100;2023-07-09T05:18:04;54.60;;;36.58;;
52268;SDS011;38224;50.950;4.100;2023-07-09T05:20:30;53.70;;;36.63;;
52268;SDS011;38224;50.950;4.100;2023-07-09T05:22:55;52.03;;;38.23;;
52268;SDS011;38224;50.950;4.100;2023-07-09T05:25:20;56.07;;;38.80;;
52268;SDS011;38224;50.950;4.100;2023-07-09T05:27:45;56.50;;;40.43;;
52268;SDS011;38224;50.950;4.100;2023-07-09T05:30:11;54.50;;;38.53;;
52268;SDS011;38224;50.950;4.100;2023-07-09T05:32:36;51.85;;;39.17;;
52268;SDS011;38224;50.950;4.100;2023-07-09T05:35:02;53.10;;;41.20;;
52268;SDS011;38224;50.950;4.100;2023-07-09T05:37:27;52.38;;;38.95;;
52268;SDS011;38224;50.950;4.100;2023-07-09T05:39:52;46.27;;;36.47;;
52268;SDS011;38224;50.950;4.100;2023-07-09T05:42:17;54.27;;;37.80;;
52268;SDS011;38224;50.950;4.100;2023-07-09T05:44:43;52.83;;;38.20;;
52268;SDS011;38224;50.950;4.100;2023-07-09T05:47:08;51.77;;;35.77;;
52268;SDS011;38224;50.950;4.100;2023-07-09T05:49:34;46.23;;;32.80;;
52268;SDS011;38224;50.950;4.100;2023-07-09T05:51:59;45.47;;;32.27;;
52268;SDS011;38224;50.950;4.100;2023-07-09T05:54:24;40.97;;;29.83;;
52268;SDS011;38224;50.950;4.100;2023-07-09T05:56:49;44.10;;;31.80;;
52268;SDS011;38224;50.950;4.100;2023-07-09T05:59:14;43.97;;;31.57;;
52268;SDS011;38224;50.950;4.100;2023-07-09T06:01:40;47.67;;;31.37;;
52268;SDS011;38224;50.950;4.100;2023-07-09T06:04:05;47.83;;;31.37;;
52268;SDS011;38224;50.950;4.100;2023-07-09T06:06:31;46.38;;;32.58;;
52268;SDS011;38224;50.950;4.100;2023-07-09T06:08:56;44.72;;;33.10;;
52268;SDS011;38224;50.950;4.100;2023-07-09T06:11:22;47.57;;;33.53;;
52268;SDS011;38224;50.950;4.100;2023-07-09T06:13:48;46.50;;;33.78;;
52268;SDS011;38224;50.950;4.100;2023-07-09T06:16:14;54.77;;;37.97;;
52268;SDS011;38224;50.950;4.100;2023-07-09T06:18:39;47.30;;;35.90;;
52268;SDS011;38224;50.950;4.100;2023-07-09T06:21:05;57.20;;;37.90;;
52268;SDS011;38224;50.950;4.100;2023-07-09T06:23:32;57.40;;;37.67;;
52268;SDS011;38224;50.950;4.100;2023-07-09T06:25:58;49.40;;;36.17;;
52268;SDS011;38224;50.950;4.100;2023-07-09T06:28:24;52.35;;;37.78;;
52268;SDS011;38224;50.950;4.100;2023-07-09T06:30:49;51.03;;;35.30;;
52268;SDS011;38224;50.950;4.100;2023-07-09T06:33:15;55.80;;;36.55;;
52268;SDS011;38224;50.950;4.100;2023-07-09T06:35:47;50.33;;;35.97;;
52268;SDS011;38224;50.950;4.100;2023-07-09T06:38:13;49.17;;;34.45;;
52268;SDS011;38224;50.950;4.100;2023-07-09T06:40:38;49.43;;;35.30;;
52268;SDS011;38224;50.950;4.100;2023-07-09T06:43:03;45.23;;;33.30;;
52268;SDS011;38224;50.950;4.100;2023-07-09T06:45:28;45.87;;;32.87;;
52268;SDS011;38224;50.950;4.100;2023-07-09T06:47:54;47.47;;;32.73;;
52268;SDS011;38224;50.950;4.100;2023-07-09T06:50:19;44.73;;;32.67;;
52268;SDS011;38224;50.950;4.100;2023-07-09T06:52:45;42.47;;;30.48;;
52268;SDS011;38224;50.950;4.100;2023-07-09T06:55:11;46.17;;;29.02;;
52268;SDS011;38224;50.950;4.100;2023-07-09T06:57:36;40.10;;;28.00;;
52268;SDS011;38224;50.950;4.100;2023-07-09T07:00:02;39.03;;;25.15;;
52268;SDS011;38224;50.950;4.100;2023-07-09T07:02:27;37.47;;;26.65;;
52268;SDS011;38224;50.950;4.100;2023-07-09T07:04:53;35.80;;;26.10;;
52268;SDS011;38224;50.950;4.100;2023-07-09T07:07:19;36.87;;;25.37;;
52268;SDS011;38224;50.950;4.100;2023-07-09T07:09:44;37.80;;;26.00;;
52268;SDS011;38224;50.950;4.100;2023-07-09T07:12:09;37.93;;;26.37;;
52268;SDS011;38224;50.950;4.100;2023-07-09T07:14:34;36.55;;;24.55;;
52268;SDS011;38224;50.950;4.100;2023-07-09T07:17:00;32.22;;;23.30;;
52268;SDS011;38224;50.950;4.100;2023-07-09T07:19:26;36.50;;;24.00;;
52268;SDS011;38224;50.950;4.100;2023-07-09T07:21:51;36.15;;;24.10;;
52268;SDS011;38224;50.950;4.100;2023-07-09T07:24:17;36.73;;;24.47;;
52268;SDS011;38224;50.950;4.100;2023-07-09T07:26:42;34.60;;;23.97;;
52268;SDS011;38224;50.950;4.100;2023-07-09T07:29:07;35.03;;;23.27;;
52268;SDS011;38224;50.950;4.100;2023-07-09T07:31:32;29.57;;;21.33;;
52268;SDS011;38224;50.950;4.100;2023-07-09T07:33:58;30.37;;;21.80;;
52268;SDS011;38224;50.950;4.100;2023-07-09T07:36:23;36.03;;;23.43;;
52268;SDS011;38224;50.950;4.100;2023-07-09T07:38:48;28.57;;;21.77;;
52268;SDS011;38224;50.950;4.100;2023-07-09T07:41:13;32.95;;;20.52;;
52268;SDS011;38224;50.950;4.100;2023-07-09T07:43:39;29.67;;;19.02;;
52268;SDS011;38224;50.950;4.100;2023-07-09T07:46:05;30.43;;;19.33;;
52268;SDS011;38224;50.950;4.100;2023-07-09T07:48:31;25.73;;;19.65;;
52268;SDS011;38224;50.950;4.100;2023-07-09T07:50:59;33.63;;;19.77;;
52268;SDS011;38224;50.950;4.100;2023-07-09T07:53:26;27.17;;;17.65;;
52268;SDS011;38224;50.950;4.100;2023-07-09T07:55:54;27.35;;;17.98;;
52268;SDS011;38224;50.950;4.100;2023-07-09T07:58:20;24.77;;;17.65;;
52268;SDS011;38224;50.950;4.100;2023-07-09T08:00:45;23.70;;;16.30;;
52268;SDS011;38224;50.950;4.100;2023-07-09T08:03:11;25.57;;;18.10;;
52268;SDS011;38224;50.950;4.100;2023-07-09T08:05:36;28.33;;;17.60;;
52268;SDS011;38224;50.950;4.100;2023-07-09T08:08:01;25.05;;;15.65;;
52268;SDS011;38224;50.950;4.100;2023-07-09T08:10:27;20.63;;;14.53;;
52268;SDS011;38224;50.950;4.100;2023-07-09T08:12:52;21.57;;;15.43;;
52268;SDS011;38224;50.950;4.100;2023-07-09T08:15:21;21.60;;;14.35;;
52268;SDS011;38224;50.950;4.100;2023-07-09T08:17:46;30.60;;;17.57;;
52268;SDS011;38224;50.950;4.100;2023-07-09T08:20:12;29.80;;;19.07;;
52268;SDS011;38224;50.950;4.100;2023-07-09T08:22:37;26.40;;;17.90;;
52268;SDS011;38224;50.950;4.100;2023-07-09T08:25:02;25.17;;;16.67;;
52268;SDS011;38224;50.950;4.100;2023-07-09T08:27:28;24.60;;;16.42;;
52268;SDS011;38224;50.950;4.100;2023-07-09T08:29:53;25.60;;;17.23;;
52268;SDS011;38224;50.950;4.100;2023-07-09T08:32:18;24.63;;;17.13;;
52268;SDS011;38224;50.950;4.100;2023-07-09T08:34:43;25.33;;;17.40;;
52268;SDS011;38224;50.950;4.100;2023-07-09T08:37:08;31.23;;;18.43;;
52268;SDS011;38224;50.950;4.100;2023-07-09T08:39:34;24.50;;;16.17;;
52268;SDS011;38224;50.950;4.100;2023-07-09T08:52:10;18.23;;;14.05;;
52268;SDS011;38224;50.950;4.100;2023-07-09T08:54:37;18.15;;;13.73;;
52268;SDS011;38224;50.950;4.100;2023-07-09T08:57:09;21.02;;;13.85;;
52268;SDS011;38224;50.950;4.100;2023-07-09T08:59:39;21.80;;;14.82;;
52268;SDS011;38224;50.950;4.100;2023-07-09T09:02:05;19.35;;;12.20;;
52268;SDS011;38224;50.950;4.100;2023-07-09T09:04:39;18.08;;;13.02;;
52268;SDS011;38224;50.950;4.100;2023-07-09T09:09:32;18.40;;;12.73;;
52268;SDS011;38224;50.950;4.100;2023-07-09T09:14:30;20.65;;;14.00;;
52268;SDS011;38224;50.950;4.100;2023-07-09T09:16:57;19.20;;;12.23;;
52268;SDS011;38224;50.950;4.100;2023-07-09T09:21:54;17.85;;;12.07;;
52268;SDS011;38224;50.950;4.100;2023-07-09T09:24:31;14.70;;;11.00;;
52268;SDS011;38224;50.950;4.100;2023-07-09T09:26:57;15.07;;;10.63;;
52268;SDS011;38224;50.950;4.100;2023-07-09T09:29:24;14.57;;;9.85;;
52268;SDS011;38224;50.950;4.100;2023-07-09T09:31:50;16.38;;;10.10;;
52268;SDS011;38224;50.950;4.100;2023-07-09T09:34:20;14.82;;;10.93;;
52268;SDS011;38224;50.950;4.100;2023-07-09T09:36:46;17.23;;;9.20;;
52268;SDS011;38224;50.950;4.100;2023-07-09T09:39:11;14.38;;;9.25;;
52268;SDS011;38224;50.950;4.100;2023-07-09T09:41:37;13.30;;;7.95;;
52268;SDS011;38224;50.950;4.100;2023-07-09T09:44:03;13.85;;;6.93;;
52268;SDS011;38224;50.950;4.100;2023-07-09T09:46:30;10.65;;;6.75;;
52268;SDS011;38224;50.950;4.100;2023-07-09T09:48:58;11.55;;;6.80;;
52268;SDS011;38224;50.950;4.100;2023-07-09T09:51:27;11.35;;;6.55;;
52268;SDS011;38224;50.950;4.100;2023-07-09T09:54:01;10.02;;;6.30;;
52268;SDS011;38224;50.950;4.100;2023-07-09T09:56:30;12.05;;;6.32;;
52268;SDS011;38224;50.950;4.100;2023-07-09T09:58:59;10.20;;;5.57;;
52268;SDS011;38224;50.950;4.100;2023-07-09T10:01:29;7.10;;;5.38;;
52268;SDS011;38224;50.950;4.100;2023-07-09T10:03:58;8.63;;;5.22;;
52268;SDS011;38224;50.950;4.100;2023-07-09T10:06:33;5.95;;;4.18;;
52268;SDS011;38224;50.950;4.100;2023-07-09T10:09:05;6.10;;;4.22;;
52268;SDS011;38224;50.950;4.100;2023-07-09T10:14:22;7.70;;;3.70;;
52268;SDS011;38224;50.950;4.100;2023-07-09T10:16:51;10.57;;;3.65;;
52268;SDS011;38224;50.950;4.100;2023-07-09T10:21:51;8.52;;;4.05;;
52268;SDS011;38224;50.950;4.100;2023-07-09T10:27:08;6.13;;;3.20;;
52268;SDS011;38224;50.950;4.100;2023-07-09T10:34:57;5.80;;;3.03;;
52268;SDS011;38224;50.950;4.100;2023-07-09T10:39:58;8.18;;;4.07;;
52268;SDS011;38224;50.950;4.100;2023-07-09T10:42:30;8.93;;;3.67;;
52268;SDS011;38224;50.950;4.100;2023-07-09T10:44:58;6.93;;;3.95;;
52268;SDS011;38224;50.950;4.100;2023-07-09T10:49:51;10.10;;;3.37;;
52268;SDS011;38224;50.950;4.100;2023-07-09T10:52:50;5.75;;;4.03;;
52268;SDS011;38224;50.950;4.100;2023-07-09T10:57:48;8.63;;;4.03;;
52268;SDS011;38224;50.950;4.100;2023-07-09T11:00:20;7.63;;;3.78;;
52268;SDS011;38224;50.950;4.100;2023-07-09T11:02:48;5.75;;;3.60;;
52268;SDS011;38224;50.950;4.100;2023-07-09T11:05:15;11.18;;;3.85;;
52268;SDS011;38224;50.950;4.100;2023-07-09T11:12:45;6.97;;;3.25;;
52268;SDS011;38224;50.950;4.100;2023-07-09T11:15:21;6.75;;;3.13;;
52268;SDS011;38224;50.950;4.100;2023-07-09T11:17:47;5.88;;;3.30;;
52268;SDS011;38224;50.950;4.100;2023-07-09T11:20:24;6.18;;;3.60;;
52268;SDS011;38224;50.950;4.100;2023-07-09T11:22:51;7.60;;;3.15;;
52268;SDS011;38224;50.950;4.100;2023-07-09T11:25:26;6.25;;;3.28;;
52268;SDS011;38224;50.950;4.100;2023-07-09T11:28:02;5.40;;;3.45;;
52268;SDS011;38224;50.950;4.100;2023-07-09T11:30:28;5.70;;;3.08;;
52268;SDS011;38224;50.950;4.100;2023-07-09T11:33:03;6.38;;;3.40;;
52268;SDS011;38224;50.950;4.100;2023-07-09T11:38:21;9.13;;;3.53;;
52268;SDS011;38224;50.950;4.100;2023-07-09T11:40:50;7.95;;;4.07;;
52268;SDS011;38224;50.950;4.100;2023-07-09T11:43:26;9.90;;;3.60;;
52268;SDS011;38224;50.950;4.100;2023-07-09T11:45:52;4.93;;;3.15;;
52268;SDS011;38224;50.950;4.100;2023-07-09T11:48:27;7.20;;;3.50;;
52268;SDS011;38224;50.950;4.100;2023-07-09T11:50:54;6.15;;;3.35;;
52268;SDS011;38224;50.950;4.100;2023-07-09T11:53:38;10.30;;;3.55;;
52268;SDS011;38224;50.950;4.100;2023-07-09T11:56:07;7.90;;;3.75;;
52268;SDS011;38224;50.950;4.100;2023-07-09T11:58:32;6.40;;;3.83;;
52268;SDS011;38224;50.950;4.100;2023-07-09T12:01:01;7.60;;;3.47;;
52268;SDS011;38224;50.950;4.100;2023-07-09T12:03:37;8.85;;;3.40;;
52268;SDS011;38224;50.950;4.100;2023-07-09T12:06:26;11.23;;;4.07;;
52268;SDS011;38224;50.950;4.100;2023-07-09T12:08:50;9.85;;;3.67;;
52268;SDS011;38224;50.950;4.100;2023-07-09T12:11:29;9.60;;;3.70;;
52268;SDS011;38224;50.950;4.100;2023-07-09T12:14:00;10.80;;;4.85;;
52268;SDS011;38224;50.950;4.100;2023-07-09T12:16:28;7.72;;;4.15;;
52268;SDS011;38224;50.950;4.100;2023-07-09T12:18:53;11.32;;;4.25;;
52268;SDS011;38224;50.950;4.100;2023-07-09T12:21:19;8.60;;;4.40;;
52268;SDS011;38224;50.950;4.100;2023-07-09T12:23:44;9.52;;;4.70;;
52268;SDS011;38224;50.950;4.100;2023-07-09T12:26:11;10.70;;;4.80;;
52268;SDS011;38224;50.950;4.100;2023-07-09T12:28:37;14.68;;;4.85;;
52268;SDS011;38224;50.950;4.100;2023-07-09T12:31:03;14.07;;;6.77;;
52268;SDS011;38224;50.950;4.100;2023-07-09T12:33:28;18.50;;;6.50;;
52268;SDS011;38224;50.950;4.100;2023-07-09T12:36:00;13.95;;;5.78;;
52268;SDS011;38224;50.950;4.100;2023-07-09T12:38:27;11.10;;;5.10;;
52268;SDS011;38224;50.950;4.100;2023-07-09T12:40:52;15.25;;;6.97;;
52268;SDS011;38224;50.950;4.100;2023-07-09T12:43:19;12.32;;;6.60;;
52268;SDS011;38224;50.950;4.100;2023-07-09T12:45:46;15.25;;;6.47;;
52268;SDS011;38224;50.950;4.100;2023-07-09T12:48:12;11.32;;;6.90;;
52268;SDS011;38224;50.950;4.100;2023-07-09T12:50:39;16.25;;;8.30;;
52268;SDS011;38224;50.950;4.100;2023-07-09T12:53:14;18.63;;;8.00;;
52268;SDS011;38224;50.950;4.100;2023-07-09T12:55:40;11.35;;;7.20;;
52268;SDS011;38224;50.950;4.100;2023-07-09T12:58:10;17.80;;;7.75;;
52268;SDS011;38224;50.950;4.100;2023-07-09T13:00:36;10.63;;;6.68;;
52268;SDS011;38224;50.950;4.100;2023-07-09T13:03:02;12.40;;;6.23;;
52268;SDS011;38224;50.950;4.100;2023-07-09T13:05:27;11.95;;;5.78;;
52268;SDS011;38224;50.950;4.100;2023-07-09T13:07:54;14.05;;;5.93;;
52268;SDS011;38224;50.950;4.100;2023-07-09T13:10:24;10.07;;;5.82;;
52268;SDS011;38224;50.950;4.100;2023-07-09T13:12:54;13.27;;;5.90;;
52268;SDS011;38224;50.950;4.100;2023-07-09T13:17:45;10.77;;;6.03;;
52268;SDS011;38224;50.950;4.100;2023-07-09T13:20:10;14.27;;;5.27;;
52268;SDS011;38224;50.950;4.100;2023-07-09T13:22:45;13.82;;;5.40;;
52268;SDS011;38224;50.950;4.100;2023-07-09T13:25:10;10.57;;;6.28;;
52268;SDS011;38224;50.950;4.100;2023-07-09T13:27:36;14.27;;;7.30;;
52268;SDS011;38224;50.950;4.100;2023-07-09T13:30:02;10.57;;;6.60;;
52268;SDS011;38224;50.950;4.100;2023-07-09T13:32:28;14.40;;;6.90;;
52268;SDS011;38224;50.950;4.100;2023-07-09T13:34:53;15.73;;;7.80;;
52268;SDS011;38224;50.950;4.100;2023-07-09T13:37:18;14.60;;;7.40;;
52268;SDS011;38224;50.950;4.100;2023-07-09T13:39:44;16.43;;;8.03;;
52268;SDS011;38224;50.950;4.100;2023-07-09T13:42:14;23.75;;;9.00;;
52268;SDS011;38224;50.950;4.100;2023-07-09T13:44:41;17.63;;;8.45;;
52268;SDS011;38224;50.950;4.100;2023-07-09T13:47:16;15.93;;;8.00;;
52268;SDS011;38224;50.950;4.100;2023-07-09T13:49:42;13.50;;;7.63;;
52268;SDS011;38224;50.950;4.100;2023-07-09T13:52:09;16.70;;;8.50;;
52268;SDS011;38224;50.950;4.100;2023-07-09T13:54:41;19.35;;;9.52;;
52268;SDS011;38224;50.950;4.100;2023-07-09T13:57:06;16.27;;;9.02;;
52268;SDS011;38224;50.950;4.100;2023-07-09T13:59:32;17.95;;;8.75;;
52268;SDS011;38224;50.950;4.100;2023-07-09T14:01:58;18.58;;;8.45;;
52268;SDS011;38224;50.950;4.100;2023-07-09T14:04:24;20.42;;;8.52;;
52268;SDS011;38224;50.950;4.100;2023-07-09T14:06:50;12.93;;;7.50;;
52268;SDS011;38224;50.950;4.100;2023-07-09T14:09:15;16.03;;;8.37;;
52268;SDS011;38224;50.950;4.100;2023-07-09T14:11:46;15.13;;;7.63;;
52268;SDS011;38224;50.950;4.100;2023-07-09T14:14:19;13.60;;;7.10;;
52268;SDS011;38224;50.950;4.100;2023-07-09T14:16:45;13.35;;;6.80;;
52268;SDS011;38224;50.950;4.100;2023-07-09T14:19:14;16.65;;;8.18;;
52268;SDS011;38224;50.950;4.100;2023-07-09T14:21:40;14.57;;;6.72;;
52268;SDS011;38224;50.950;4.100;2023-07-09T14:24:25;13.75;;;7.25;;
52268;SDS011;38224;50.950;4.100;2023-07-09T14:26:55;14.55;;;7.40;;
52268;SDS011;38224;50.950;4.100;2023-07-09T14:29:21;17.25;;;7.53;;
52268;SDS011;38224;50.950;4.100;2023-07-09T14:31:46;14.15;;;6.80;;
52268;SDS011;38224;50.950;4.100;2023-07-09T14:34:25;13.40;;;7.43;;
52268;SDS011;38224;50.950;4.100;2023-07-09T14:36:52;17.80;;;7.95;;
52268;SDS011;38224;50.950;4.100;2023-07-09T14:39:18;14.45;;;7.10;;
52268;SDS011;38224;50.950;4.100;2023-07-09T14:41:44;16.58;;;7.63;;
52268;SDS011;38224;50.950;4.100;2023-07-09T14:44:30;13.37;;;6.80;;
52268;SDS011;38224;50.950;4.100;2023-07-09T14:46:55;12.25;;;7.07;;
52268;SDS011;38224;50.950;4.100;2023-07-09T14:49:21;13.40;;;7.88;;
52268;SDS011;38224;50.950;4.100;2023-07-09T14:51:47;13.45;;;7.53;;
52268;SDS011;38224;50.950;4.100;2023-07-09T14:54:18;12.52;;;7.43;;
52268;SDS011;38224;50.950;4.100;2023-07-09T14:56:43;16.00;;;7.80;;
52268;SDS011;38224;50.950;4.100;2023-07-09T14:59:09;17.13;;;10.25;;
52268;SDS011;38224;50.950;4.100;2023-07-09T15:01:34;18.13;;;9.43;;
52268;SDS011;38224;50.950;4.100;2023-07-09T15:04:01;14.07;;;7.90;;
52268;SDS011;38224;50.950;4.100;2023-07-09T15:06:32;15.43;;;8.35;;
52268;SDS011;38224;50.950;4.100;2023-07-09T15:08:57;13.20;;;8.30;;
52268;SDS011;38224;50.950;4.100;2023-07-09T15:11:23;15.32;;;8.65;;
52268;SDS011;38224;50.950;4.100;2023-07-09T15:13:48;15.57;;;8.57;;
52268;SDS011;38224;50.950;4.100;2023-07-09T15:16:13;15.53;;;10.07;;
52268;SDS011;38224;50.950;4.100;2023-07-09T15:18:39;19.47;;;11.83;;
52268;SDS011;38224;50.950;4.100;2023-07-09T15:21:04;23.00;;;10.93;;
52268;SDS011;38224;50.950;4.100;2023-07-09T15:23:30;18.70;;;10.68;;
52268;SDS011;38224;50.950;4.100;2023-07-09T15:25:55;20.45;;;10.75;;